createdAt,value
2022-09-16T00:01:01.561Z,98199.47
2022-09-16T00:06:04.692Z,98192.81
2022-09-16T00:11:07.582Z,98194.97
2022-09-16T00:16:17.561Z,98190.41
2022-09-16T00:21:20.523Z,98199.84
2022-09-16T00:26:23.456Z,98201.66
2022-09-16T00:31:27.828Z,98202.94
2022-09-16T00:36:31.398Z,98198.91
2022-09-16T00:41:34.387Z,98200.78
2022-09-16T00:46:43.167Z,98202.28
2022-09-16T00:51:48.947Z,98205.44
2022-09-16T00:56:55.553Z,98211.72
2022-09-16T01:02:05.597Z,98210.09
2022-09-16T01:07:08.882Z,98209.53
2022-09-16T01:12:11.785Z,98212.63
2022-09-16T01:17:23.291Z,98201.00
2022-09-16T01:22:44.525Z,98206.97
2022-09-16T01:28:11.276Z,98201.44
2022-09-16T01:33:24.876Z,98211.94
2022-09-16T01:38:46.156Z,98207.41
2022-09-16T01:43:57.257Z,98215.63
2022-09-16T01:49:10.763Z,98224.59
2022-09-16T01:54:18.788Z,98223.25
2022-09-16T01:59:26.881Z,98231.00
2022-09-16T02:04:36.208Z,98224.59
2022-09-16T02:09:43.624Z,98232.19
2022-09-16T02:14:49.259Z,98229.63
2022-09-16T02:19:58.889Z,98217.81
2022-09-16T02:25:04.199Z,98211.94
2022-09-16T02:30:10.775Z,98217.81
2022-09-16T02:35:18.222Z,98217.31
2022-09-16T02:40:25.641Z,98216.75
2022-09-16T02:45:38.249Z,98211.06
2022-09-16T02:50:48.975Z,98214.13
2022-09-16T02:55:55.643Z,98217.13
2022-09-16T03:00:59.005Z,98210.50
2022-09-16T03:06:17.854Z,98224.09
2022-09-16T03:11:36.608Z,98210.50
2022-09-16T03:16:49.224Z,98204.69
2022-09-16T03:22:00.219Z,98212.50
2022-09-16T03:27:10.331Z,98213.03
2022-09-16T03:32:21.113Z,98202.88
2022-09-16T03:37:28.803Z,98202.16
2022-09-16T03:42:32.337Z,98204.66
2022-09-16T03:47:35.304Z,98201.19
2022-09-16T03:52:39.593Z,98205.41
2022-09-16T03:57:42.479Z,98207.25
2022-09-16T04:02:45.493Z,98204.63
2022-09-16T04:07:51.056Z,98205.66
2022-09-16T04:12:58.053Z,98199.38
2022-09-16T04:18:01.523Z,98201.00
2022-09-16T04:23:05.840Z,98197.47
2022-09-16T04:28:09.045Z,98202.38
2022-09-16T04:33:12.372Z,98199.97
2022-09-16T04:38:16.654Z,98203.75
2022-09-16T04:43:19.604Z,98211.41
2022-09-16T04:48:22.624Z,98218.56
2022-09-16T04:53:27.678Z,98218.00
2022-09-16T04:58:30.778Z,98216.34
2022-09-16T05:03:33.875Z,98215.81
2022-09-16T05:08:38.723Z,98214.84
2022-09-16T05:13:41.959Z,98214.56
2022-09-16T05:18:46.388Z,98216.88
2022-09-16T05:23:51.133Z,98230.06
2022-09-16T05:28:54.568Z,98228.28
2022-09-16T05:33:59.008Z,98232.25
2022-09-16T05:44:27.663Z,98221.66
2022-09-16T05:49:30.616Z,98221.75
2022-09-16T05:54:34.874Z,98228.50
2022-09-16T05:59:37.773Z,98226.44
2022-09-16T06:04:40.683Z,98223.47
2022-09-16T06:09:45.280Z,98229.63
2022-09-16T06:14:48.213Z,98232.91
2022-09-16T06:19:51.135Z,98227.28
2022-09-16T06:24:55.417Z,98220.47
2022-09-16T06:29:58.336Z,98225.09
2022-09-16T06:35:01.261Z,98225.94
2022-09-16T06:40:06.432Z,98226.97
2022-09-16T06:45:10.128Z,98230.03
2022-09-16T06:50:13.095Z,98230.59
2022-09-16T06:55:17.602Z,98223.38
2022-09-16T07:00:21.255Z,98217.50
2022-09-16T07:05:24.167Z,98220.75
2022-09-16T07:10:28.450Z,98215.22
2022-09-16T07:15:31.323Z,98213.09
2022-09-16T07:20:34.369Z,98229.91
2022-09-16T07:25:38.630Z,98227.19
2022-09-16T07:30:42.129Z,98229.44
2022-09-16T07:35:45.135Z,98242.28
2022-09-16T07:40:49.433Z,98238.63
2022-09-16T07:45:57.770Z,98242.81
2022-09-16T07:51:02.469Z,98244.34
2022-09-16T07:56:09.880Z,98236.41
2022-09-16T08:01:15.240Z,98239.78
2022-09-16T08:06:20.600Z,98237.94
2022-09-16T08:11:25.338Z,98232.53
2022-09-16T08:16:28.666Z,98234.28
2022-09-16T08:21:31.867Z,98225.69
2022-09-16T08:26:36.125Z,98226.81
2022-09-16T08:31:39.757Z,98225.16
2022-09-16T08:36:42.744Z,98223.44
2022-09-16T08:42:11.374Z,98223.44
2022-09-16T08:47:28.601Z,98231.38
2022-09-16T08:52:33.488Z,98220.25
2022-09-16T08:57:41.630Z,98218.81
2022-09-16T09:02:52.468Z,98231.56
2022-09-16T09:08:15.629Z,98246.44
2022-09-16T09:13:36.984Z,98229.50
2022-09-16T09:18:52.036Z,98234.22
2022-09-16T09:24:11.678Z,98224.75
2022-09-16T09:29:39.980Z,98231.09
2022-09-16T09:34:58.279Z,98233.19
2022-09-16T09:40:10.456Z,98225.28
2022-09-16T09:45:22.317Z,98210.94
2022-09-16T09:50:29.780Z,98208.16
2022-09-16T09:55:35.656Z,98198.75
2022-09-16T10:00:40.082Z,98189.88
2022-09-16T10:05:43.513Z,98180.09
2022-09-16T10:10:50.917Z,98178.28
2022-09-16T10:16:08.018Z,98172.66
2022-09-16T10:21:14.138Z,98185.06
2022-09-16T10:26:22.539Z,98171.28
2022-09-16T10:31:33.683Z,98173.66
2022-09-16T10:36:37.706Z,98206.22
2022-09-16T10:41:46.037Z,98222.09
2022-09-16T10:46:56.836Z,98218.41
2022-09-16T10:52:09.398Z,98206.78
2022-09-16T10:57:24.335Z,98203.59
2022-09-16T11:02:41.368Z,98207.84
2022-09-16T11:07:52.163Z,98195.16
2022-09-16T11:13:19.855Z,98179.69
2022-09-16T11:18:50.782Z,98184.59
2022-09-16T11:24:14.105Z,98168.19
2022-09-16T11:29:45.626Z,98195.63
2022-09-16T11:35:04.819Z,98198.03
2022-09-16T11:40:18.626Z,98196.75
2022-09-16T11:45:42.151Z,98186.19
2022-09-16T11:50:53.330Z,98176.78
2022-09-16T11:56:00.866Z,98171.81
2022-09-16T12:01:15.346Z,98169.00
2022-09-16T12:06:23.718Z,98165.94
2022-09-16T12:11:33.166Z,98169.00
2022-09-16T12:16:40.649Z,98162.00
2022-09-16T12:21:49.954Z,98151.78
2022-09-16T12:26:58.521Z,98155.94
2022-09-16T12:32:05.899Z,98146.09
2022-09-16T12:37:25.917Z,98134.88
2022-09-16T12:42:58.927Z,98129.50
2022-09-16T12:48:23.478Z,98112.75
2022-09-16T12:53:56.797Z,98112.84
2022-09-16T12:59:27.105Z,98105.91
2022-09-16T13:04:33.613Z,98106.16
2022-09-16T13:09:40.777Z,98095.34
2022-09-16T13:14:49.041Z,98095.16
2022-09-16T13:19:54.011Z,98081.47
2022-09-16T13:25:06.853Z,98083.06
2022-09-16T13:30:29.098Z,98078.47
2022-09-16T13:35:50.337Z,98072.72
2022-09-16T13:41:00.440Z,98078.81
2022-09-16T13:46:06.866Z,98079.06
2022-09-16T13:51:16.239Z,98085.75
2022-09-16T13:56:51.748Z,98092.41
2022-09-16T14:02:04.617Z,98082.25
2022-09-16T14:07:20.818Z,98082.72
2022-09-16T14:12:34.883Z,98093.91
2022-09-16T14:17:42.187Z,98094.75
2022-09-16T14:22:45.536Z,98085.34
2022-09-16T14:27:49.830Z,98076.44
2022-09-16T14:32:52.820Z,98078.69
2022-09-16T14:37:59.999Z,98074.38
2022-09-16T14:43:06.763Z,98077.13
2022-09-16T14:48:11.827Z,98064.91
2022-09-16T14:53:33.850Z,98070.56
2022-09-16T14:58:39.800Z,98076.84
2022-09-16T15:03:47.413Z,98086.78
2022-09-16T15:08:54.427Z,98077.22
2022-09-16T15:13:59.916Z,98060.06
2022-09-16T15:19:05.480Z,98069.31
2022-09-16T15:24:19.254Z,98060.88
2022-09-16T15:29:32.494Z,98061.50
2022-09-16T15:34:35.910Z,98062.44
2022-09-16T15:39:40.732Z,98064.59
2022-09-16T15:44:51.144Z,98056.75
2022-09-16T15:49:59.298Z,98057.88
2022-09-16T15:55:06.428Z,98065.44
2022-09-16T16:00:16.350Z,98068.16
2022-09-16T16:05:22.177Z,98068.78
2022-09-16T16:10:26.785Z,98063.00
2022-09-16T16:15:34.893Z,98060.63
2022-09-16T16:20:39.048Z,98071.25
2022-09-16T16:25:41.964Z,98062.59
2022-09-16T16:30:46.367Z,98071.28
2022-09-16T16:35:49.586Z,98068.94
2022-09-16T16:40:52.813Z,98080.00
2022-09-16T16:45:57.716Z,98076.88
2022-09-16T16:51:03.593Z,98069.22
2022-09-16T16:56:14.008Z,98067.91
2022-09-16T17:01:21.081Z,98075.03
2022-09-16T17:06:24.149Z,98078.97
2022-09-16T17:11:27.684Z,98075.28
2022-09-16T17:16:32.760Z,98075.00
2022-09-16T17:21:37.476Z,98079.72
2022-09-16T17:26:40.501Z,98080.47
2022-09-16T17:31:45.481Z,98080.97
2022-09-16T17:36:48.613Z,98071.47
2022-09-16T17:41:51.592Z,98078.81
2022-09-16T17:46:56.168Z,98088.53
2022-09-16T17:51:59.135Z,98092.50
2022-09-16T17:57:02.078Z,98081.06
2022-09-16T18:02:06.679Z,98084.03
2022-09-16T18:07:10.713Z,98091.84
2022-09-16T18:12:13.633Z,98088.91
2022-09-16T18:17:18.794Z,98095.19
2022-09-16T18:22:21.787Z,98092.09
2022-09-16T18:27:25.463Z,98103.81
2022-09-16T18:32:30.142Z,98105.88
2022-09-16T18:37:33.075Z,98093.56
2022-09-16T18:42:36.020Z,98107.16
2022-09-16T18:47:40.399Z,98102.66
2022-09-16T18:52:43.331Z,98111.56
2022-09-16T18:57:46.269Z,98108.56
2022-09-16T19:02:52.940Z,98109.91
2022-09-16T19:07:55.941Z,98107.66
2022-09-16T19:12:58.841Z,98101.00
2022-09-16T19:18:03.126Z,98103.91
2022-09-16T19:23:06.060Z,98110.91
2022-09-16T19:28:09.080Z,98111.50
2022-09-16T19:33:13.599Z,98114.91
2022-09-16T19:38:16.571Z,98117.91
2022-09-16T19:43:19.676Z,98120.59
2022-09-16T19:48:24.432Z,98124.91
2022-09-16T19:53:28.221Z,98121.59
2022-09-16T19:58:32.537Z,98124.09
2022-09-16T20:03:38.311Z,98120.00
2022-09-16T20:08:43.267Z,98111.84
2022-09-16T20:13:49.617Z,98109.72
2022-09-16T20:18:54.401Z,98112.59
2022-09-16T20:23:57.896Z,98110.69
2022-09-16T20:29:00.955Z,98111.34
2022-09-16T20:34:06.088Z,98106.78
2022-09-16T20:39:10.031Z,98103.63
2022-09-16T20:44:15.693Z,98090.19
2022-09-16T20:49:22.995Z,98099.69
2022-09-16T20:54:26.026Z,98106.03
2022-09-16T20:59:29.932Z,98102.69
2022-09-16T21:04:34.218Z,98106.69
2022-09-16T21:09:37.141Z,98098.09
2022-09-16T21:14:40.071Z,98109.00
2022-09-16T21:19:44.387Z,98110.34
2022-09-16T21:24:47.874Z,98107.81
2022-09-16T21:29:52.090Z,98117.34
2022-09-16T21:34:56.361Z,98114.28
2022-09-16T21:40:00.632Z,98109.59
2022-09-16T21:45:03.597Z,98108.66
2022-09-16T21:50:08.593Z,98109.16
2022-09-16T21:55:11.506Z,98110.84
2022-09-16T22:00:15.508Z,98106.53
2022-09-16T22:05:19.769Z,98121.13
2022-09-16T22:10:22.712Z,98110.06
2022-09-16T22:15:25.678Z,98109.19
2022-09-16T22:20:29.956Z,98109.19
2022-09-16T22:25:32.843Z,98110.16
2022-09-16T22:30:35.823Z,98114.31
2022-09-16T22:35:40.097Z,98105.25
2022-09-16T22:40:43.004Z,98104.31
2022-09-16T22:45:45.925Z,98091.75
2022-09-16T22:50:57.356Z,98097.53
2022-09-16T22:56:01.955Z,98102.38
2022-09-16T23:01:07.725Z,98089.19
2022-09-16T23:06:14.002Z,98094.84
2022-09-16T23:11:19.827Z,98090.44
2022-09-16T23:16:24.730Z,98092.38
2022-09-16T23:21:30.267Z,98083.63
2022-09-16T23:26:36.005Z,98082.94
2022-09-16T23:31:40.902Z,98083.31
2022-09-16T23:36:45.855Z,98083.63
2022-09-16T23:41:51.260Z,98075.53
2022-09-16T23:46:54.215Z,98082.19
2022-09-16T23:51:58.562Z,98086.50
2022-09-16T23:57:01.454Z,98079.81
